Time;durP1;ratioP1;P1;durP2;ratioP2;P2;SDS_P1;SDS_P2;PMS_P1;PMS_P2;Temp;Humidity;BMP_temperature;BMP_pressure;BME280_temperature;BME280_humidity;BME280_pressure;Samples;Min_cycle;Max_cycle;Signal;HPM_P1;HPM_P2
2021/06/28 00:00:12;;;;;;;;;5.50;5.50;;;;;22.68;61.19;100838.31;5061533;28;45301;-79
2021/06/28 00:02:38;;;;;;;;;5.75;5.75;;;;;22.69;61.14;100845.38;5062787;28;45393;-79
2021/06/28 00:05:08;;;;;;;;;7.75;6.25;;;;;22.72;61.86;100845.03;5061764;28;45683;-79
2021/06/28 00:07:34;;;;;;;;;7.00;5.25;;;;;22.76;61.47;100835.63;5062826;28;46376;-79
2021/06/28 00:09:59;;;;;;;;;5.50;5.50;;;;;22.79;61.58;100831.72;5063449;28;45237;-78
2021/06/28 00:12:24;;;;;;;;;8.50;6.00;;;;;22.81;61.64;100840.44;5079827;28;45239;-78
2021/06/28 00:14:50;;;;;;;;;4.00;4.00;;;;;22.81;61.49;100837.75;5087332;28;45172;-79
2021/06/28 00:17:15;;;;;;;;;6.25;6.25;;;;;22.80;61.89;100831.53;5083938;28;46531;-78
2021/06/28 00:19:40;;;;;;;;;6.00;6.00;;;;;22.79;61.08;100829.84;5083119;28;45406;-79
2021/06/28 00:22:06;;;;;;;;;7.00;6.00;;;;;22.82;62.14;100828.66;5083166;28;45279;-78
2021/06/28 00:24:31;;;;;;;;;7.00;7.00;;;;;22.82;62.10;100825.97;5082756;28;45595;-79
2021/06/28 00:26:56;;;;;;;;;8.25;7.00;;;;;22.87;61.20;100823.56;5082675;28;45393;-79
2021/06/28 00:29:23;;;;;;;;;8.00;6.00;;;;;22.87;61.72;100820.88;5082652;28;45361;-78
2021/06/28 00:31:51;;;;;;;;;5.00;5.00;;;;;22.85;61.39;100818.38;5081608;28;45516;-78
2021/06/28 00:34:17;;;;;;;;;5.25;5.00;;;;;22.76;60.91;100811.38;5083531;28;45580;-78
2021/06/28 00:36:42;;;;;;;;;4.00;4.00;;;;;22.71;61.04;100808.34;5084194;28;45271;-78
2021/06/28 00:39:07;;;;;;;;;4.00;4.00;;;;;22.63;60.86;100800.34;5083612;28;45339;-78
2021/06/28 00:41:33;;;;;;;;;4.25;3.25;;;;;22.56;61.61;100785.94;5082770;28;45259;-78
2021/06/28 00:43:58;;;;;;;;;5.00;3.50;;;;;22.53;61.20;100776.34;5081254;28;45568;-78
2021/06/28 00:46:23;;;;;;;;;5.00;4.00;;;;;22.54;60.85;100771.81;5082353;28;46270;-78
2021/06/28 00:48:49;;;;;;;;;5.75;4.25;;;;;22.54;60.94;100758.34;5082782;28;45326;-79
2021/06/28 00:51:14;;;;;;;;;4.25;4.00;;;;;22.53;61.04;100762.06;5082482;28;45381;-78
2021/06/28 00:53:40;;;;;;;;;3.00;3.00;;;;;22.53;60.99;100768.28;5082645;28;45421;-78
2021/06/28 00:56:12;;;;;;;;;6.75;5.75;;;;;22.54;61.50;100766.44;5083391;28;48421;-79
2021/06/28 00:58:41;;;;;;;;;5.00;5.00;;;;;22.51;60.71;100764.94;5066105;28;45406;-78
2021/06/28 01:01:08;;;;;;;;;5.00;5.00;;;;;22.52;61.13;100752.31;5062421;28;45460;-78
2021/06/28 01:03:34;;;;;;;;;6.00;6.00;;;;;22.51;61.15;100747.94;5062168;28;45333;-78
2021/06/28 01:06:00;;;;;;;;;5.00;5.00;;;;;22.51;61.74;100756.03;5061727;28;46518;-78
2021/06/28 01:08:26;;;;;;;;;7.00;6.00;;;;;22.51;61.14;100750.63;5061979;28;45370;-78
2021/06/28 01:10:52;;;;;;;;;6.00;6.00;;;;;22.52;61.45;100750.47;5060958;28;45428;-78
2021/06/28 01:13:17;;;;;;;;;8.50;6.00;;;;;22.54;61.43;100745.75;5082345;28;45243;-79
2021/06/28 01:15:43;;;;;;;;;5.25;5.25;;;;;22.59;61.39;100731.72;5081823;28;45338;-79
2021/06/28 01:18:08;;;;;;;;;9.75;8.00;;;;;22.56;61.55;100722.19;5084115;28;45412;-79
2021/06/28 01:20:35;;;;;;;;;6.25;6.25;;;;;22.53;61.49;100703.69;5085315;27;45382;-79
2021/06/28 01:23:20;;;;;;;;;7.75;6.00;;;;;22.54;61.33;100704.53;5082324;28;45285;-79
2021/06/28 01:25:52;;;;;;;;;6.00;6.00;;;;;22.52;61.66;100699.31;5081536;28;46487;-79
2021/06/28 01:28:17;;;;;;;;;7.50;6.25;;;;;22.52;61.14;100714.63;5081920;28;45516;-79
2021/06/28 01:30:44;;;;;;;;;6.00;6.00;;;;;22.53;60.92;100744.06;5081892;28;45495;-79
2021/06/28 01:33:09;;;;;;;;;9.00;6.50;;;;;22.56;61.45;100742.88;5081844;28;45456;-78
2021/06/28 01:35:37;;;;;;;;;8.00;5.00;;;;;22.56;61.63;100746.41;5081688;28;45377;-79
2021/06/28 01:38:03;;;;;;;;;6.75;6.00;;;;;22.52;61.33;100758.53;5082721;28;45823;-78
2021/06/28 01:40:28;;;;;;;;;8.25;6.75;;;;;22.46;62.13;100764.66;5085753;28;45318;-78
2021/06/28 01:42:54;;;;;;;;;6.00;6.00;;;;;22.42;62.29;100768.69;5081646;28;45447;-78
2021/06/28 01:45:22;;;;;;;;;6.50;5.75;;;;;22.40;62.24;100776.13;5062225;28;47549;-78
2021/06/28 01:47:57;;;;;;;;;7.00;7.00;;;;;22.38;62.54;100768.25;5059789;28;45259;-79
2021/06/28 01:50:26;;;;;;;;;7.50;7.00;;;;;22.39;62.26;100772.63;5061546;28;45551;-79
2021/06/28 01:52:51;;;;;;;;;6.25;4.25;;;;;22.43;61.87;100783.00;5061427;28;45354;-79
2021/06/28 01:55:18;;;;;;;;;3.25;3.00;;;;;22.38;60.36;100778.16;5060889;28;45348;-79
2021/06/28 01:57:52;;;;;;;;;2.00;2.00;;;;;22.34;60.26;100764.22;5076747;28;46325;-79
2021/06/28 02:00:22;;;;;;;;;3.00;3.00;;;;;22.35;60.23;100751.59;5062898;28;45469;-79
2021/06/28 02:02:57;;;;;;;;;2.00;2.00;;;;;22.37;59.98;100761.19;5062937;28;45442;-79
2021/06/28 02:05:23;;;;;;;;;2.00;2.00;;;;;22.33;59.86;100772.47;5061123;28;46059;-79
2021/06/28 02:07:48;;;;;;;;;3.25;3.25;;;;;22.32;59.54;100779.69;5061010;28;45181;-79
2021/06/28 02:10:13;;;;;;;;;1.25;1.25;;;;;22.26;59.56;100785.81;5059678;28;45260;-79
2021/06/28 02:12:39;;;;;;;;;4.00;2.00;;;;;22.20;59.11;100781.16;5077368;28;45551;-79
2021/06/28 02:15:05;;;;;;;;;1.00;1.00;;;;;22.09;58.94;100788.78;5081248;28;46290;-79
2021/06/28 02:17:30;;;;;;;;;1.00;1.00;;;;;21.98;59.15;100782.78;5081227;28;45434;-79
2021/06/28 02:19:56;;;;;;;;;1.00;1.00;;;;;21.95;59.12;100771.50;5081659;28;45415;-78
2021/06/28 02:22:21;;;;;;;;;1.00;1.00;;;;;21.93;59.18;100749.34;5083756;28;45359;-79
2021/06/28 02:24:46;;;;;;;;;1.00;1.00;;;;;21.96;59.43;100765.09;5082646;28;46456;-79
2021/06/28 02:27:12;;;;;;;;;2.00;1.00;;;;;21.96;59.10;100759.72;5081024;28;45396;-78
2021/06/28 02:29:37;;;;;;;;;3.00;1.25;;;;;22.01;59.00;100754.69;5080933;28;45336;-79
2021/06/28 02:32:03;;;;;;;;;1.00;1.00;;;;;22.03;58.82;100745.41;5080886;28;45485;-79
2021/06/28 02:34:28;;;;;;;;;0.00;0.00;;;;;22.08;58.60;100738.69;5080686;28;45468;-79
2021/06/28 02:36:55;;;;;;;;;1.00;1.00;;;;;22.08;58.67;100728.78;5081082;28;45555;-79
2021/06/28 02:39:20;;;;;;;;;3.00;0.00;;;;;22.12;58.34;100737.31;5080913;28;45257;-79
2021/06/28 02:41:45;;;;;;;;;1.00;1.00;;;;;22.15;58.12;100750.41;5080912;28;45324;-78
2021/06/28 02:44:11;;;;;;;;;1.00;1.00;;;;;22.17;58.40;100773.41;5082915;28;45377;-78
2021/06/28 02:46:36;;;;;;;;;2.00;0.00;;;;;22.13;58.12;100777.47;5082091;28;45339;-78
2021/06/28 02:49:02;;;;;;;;;3.00;0.50;;;;;22.09;58.33;100786.94;5079639;28;45461;-79
2021/06/28 02:51:27;;;;;;;;;1.50;1.50;;;;;22.08;58.38;100789.78;5080765;28;45311;-79
2021/06/28 02:53:54;;;;;;;;;0.25;0.25;;;;;22.06;58.82;100795.34;5071723;28;46296;-79
2021/06/28 02:56:20;;;;;;;;;1.00;1.00;;;;;22.01;58.84;100803.94;5066469;28;45412;-79
2021/06/28 02:58:57;;;;;;;;;1.00;1.00;;;;;22.00;58.69;100801.44;5059040;28;45356;-79
2021/06/28 03:01:24;;;;;;;;;1.00;1.00;;;;;21.96;58.67;100811.66;5059001;28;45334;-79
2021/06/28 03:03:51;;;;;;;;;0.50;0.50;;;;;21.91;59.13;100810.53;5064443;28;46016;-79
2021/06/28 03:06:17;;;;;;;;;1.00;1.00;;;;;21.86;59.25;100791.38;5063625;28;45233;-78
2021/06/28 03:08:44;;;;;;;;;2.00;0.50;;;;;21.84;59.18;100775.44;5060393;28;45319;-79
2021/06/28 03:11:12;;;;;;;;;1.00;1.00;;;;;21.81;58.91;100778.47;5063813;28;45223;-79
2021/06/28 03:13:38;;;;;;;;;1.00;1.00;;;;;21.79;59.47;100785.03;5078913;28;47831;-79
2021/06/28 03:16:04;;;;;;;;;1.00;1.00;;;;;21.79;59.23;100785.03;5078772;28;45333;-79
2021/06/28 03:18:31;;;;;;;;;3.00;1.00;;;;;21.78;59.37;100775.28;5080495;28;45400;-79
2021/06/28 03:20:56;;;;;;;;;1.00;1.00;;;;;21.77;59.47;100760.16;5080372;28;45267;-79
2021/06/28 03:23:22;;;;;;;;;1.50;1.00;;;;;21.80;59.33;100765.19;5078954;28;47142;-78
2021/06/28 03:25:47;;;;;;;;;3.75;2.00;;;;;21.79;59.49;100760.84;5082954;28;45232;-78
2021/06/28 03:28:13;;;;;;;;;4.00;1.00;;;;;21.76;59.65;100745.06;5082388;28;45499;-79
2021/06/28 03:30:39;;;;;;;;;1.25;1.25;;;;;21.74;59.48;100730.97;5080178;28;45174;-79
2021/06/28 03:33:04;;;;;;;;;1.00;1.00;;;;;21.72;59.55;100728.44;5069849;28;46267;-79
2021/06/28 03:35:31;;;;;;;;;1.00;1.00;;;;;21.73;59.08;100751.63;5063390;28;45303;-79
2021/06/28 03:37:57;;;;;;;;;1.00;1.00;;;;;21.74;59.39;100747.09;5063612;28;45361;-78
2021/06/28 03:40:22;;;;;;;;;4.00;1.00;;;;;21.75;59.23;100740.72;5063034;28;45344;-78
2021/06/28 03:42:47;;;;;;;;;1.00;1.00;;;;;21.70;59.44;100740.38;5063243;28;46067;-79
2021/06/28 03:45:14;;;;;;;;;2.25;1.75;;;;;21.73;59.62;100738.19;5063539;28;45332;-79
2021/06/28 03:47:40;;;;;;;;;1.25;1.25;;;;;21.67;59.83;100752.31;5065704;28;45435;-78
2021/06/28 03:50:08;;;;;;;;;1.25;1.25;;;;;21.69;59.73;100754.81;5064002;28;45197;-79
2021/06/28 03:52:34;;;;;;;;;2.25;2.25;;;;;21.63;60.17;100751.00;5061759;28;47263;-79
2021/06/28 03:55:00;;;;;;;;;3.00;2.00;;;;;21.58;60.23;100748.81;5062728;28;45221;-78
2021/06/28 03:57:26;;;;;;;;;1.00;1.00;;;;;21.51;60.28;100747.00;5070068;28;45504;-79
2021/06/28 03:59:51;;;;;;;;;2.75;1.25;;;;;21.47;60.41;100757.28;5062920;28;45398;-79
2021/06/28 04:02:17;;;;;;;;;2.50;1.00;;;;;21.45;60.58;100764.69;5061388;28;47768;-79
2021/06/28 04:04:48;;;;;;;;;5.00;2.00;;;;;21.43;60.73;100753.25;5063083;28;45407;-79
2021/06/28 04:07:14;;;;;;;;;1.25;1.25;;;;;21.44;60.64;100762.16;5064318;28;45338;-79
2021/06/28 04:09:39;;;;;;;;;4.00;2.00;;;;;21.42;60.52;100769.53;5062591;28;45338;-79
2021/06/28 04:12:05;;;;;;;;;3.25;2.00;;;;;21.40;60.20;100750.91;5074298;28;45261;-79
2021/06/28 04:14:30;;;;;;;;;2.00;2.00;;;;;21.42;60.04;100764.19;5081645;28;45942;-78
2021/06/28 04:16:56;;;;;;;;;2.00;0.50;;;;;21.43;60.30;100769.38;5083281;28;45361;-79
2021/06/28 04:19:21;;;;;;;;;2.25;2.00;;;;;21.48;60.23;100763.50;5081518;28;45406;-78
2021/06/28 04:21:46;;;;;;;;;3.25;2.50;;;;;21.48;60.82;100767.03;5082896;28;45379;-79
2021/06/28 04:24:12;;;;;;;;;2.00;2.00;;;;;21.48;60.42;100772.41;5082695;28;45240;-79
2021/06/28 04:26:37;;;;;;;;;1.50;1.50;;;;;21.44;60.65;100756.78;5083816;28;45464;-79
2021/06/28 04:29:02;;;;;;;;;3.00;2.00;;;;;21.45;60.51;100759.31;5083140;28;45379;-79
2021/06/28 04:31:28;;;;;;;;;3.75;2.00;;;;;21.43;60.41;100760.47;5086123;28;45471;-78
2021/06/28 04:33:54;;;;;;;;;2.50;2.50;;;;;21.45;60.25;100761.16;5083985;28;45404;-78
2021/06/28 04:36:20;;;;;;;;;2.25;2.25;;;;;21.47;60.02;100776.09;5083203;28;45352;-78
2021/06/28 04:38:45;;;;;;;;;2.00;2.00;;;;;21.44;60.50;100768.38;5082836;28;45367;-78
2021/06/28 04:41:11;;;;;;;;;1.00;1.00;;;;;21.42;60.74;100778.44;5082625;28;46192;-78
2021/06/28 04:43:37;;;;;;;;;2.00;1.75;;;;;21.41;60.69;100774.09;5081285;28;45411;-78
2021/06/28 04:46:02;;;;;;;;;5.25;2.00;;;;;21.41;60.74;100776.78;5080063;28;45444;-78
2021/06/28 04:48:28;;;;;;;;;2.00;2.00;;;;;21.41;60.08;100790.19;5082707;28;45392;-78
2021/06/28 04:50:53;;;;;;;;;2.00;2.00;;;;;21.42;60.96;100794.56;5084902;28;48170;-78
2021/06/28 04:53:18;;;;;;;;;2.25;2.00;;;;;21.43;60.93;100790.88;5082137;28;45303;-78
2021/06/28 04:55:44;;;;;;;;;1.25;1.25;;;;;21.41;60.57;100800.94;5080976;28;45161;-78
2021/06/28 04:58:09;;;;;;;;;2.00;2.00;;;;;21.40;60.66;100801.97;5078531;28;45487;-78
2021/06/28 05:00:34;;;;;;;;;1.75;1.75;;;;;21.40;60.69;100801.13;5071939;28;47344;-78
2021/06/28 05:03:00;;;;;;;;;2.25;1.75;;;;;21.38;61.06;100822.81;5062220;28;45327;-78
2021/06/28 05:05:25;;;;;;;;;3.50;2.00;;;;;21.35;61.16;100815.09;5060778;28;45292;-78
2021/06/28 05:07:51;;;;;;;;;3.00;3.00;;;;;21.36;60.89;100806.00;5060678;28;45228;-78
2021/06/28 05:10:16;;;;;;;;;2.50;2.50;;;;;21.38;60.70;100812.06;5060760;28;47460;-78
2021/06/28 05:12:43;;;;;;;;;1.75;1.50;;;;;21.40;60.97;100811.88;5080918;28;45443;-77
2021/06/28 05:15:09;;;;;;;;;2.50;2.00;;;;;21.41;61.01;100825.13;5081546;28;45411;-78
2021/06/28 05:17:35;;;;;;;;;2.50;2.50;;;;;21.39;61.75;100829.03;5082147;28;45381;-78
2021/06/28 05:20:02;;;;;;;;;4.00;2.50;;;;;21.38;61.25;100828.19;5082366;28;45890;-78
2021/06/28 05:22:28;;;;;;;;;4.00;3.00;;;;;21.32;60.95;100801.97;5082024;28;45160;-78
2021/06/28 05:24:53;;;;;;;;;3.75;2.00;;;;;21.31;60.94;100812.88;5082098;28;45241;-78
2021/06/28 05:27:18;;;;;;;;;1.00;1.00;;;;;21.33;61.18;100810.88;5080650;28;45527;-78
2021/06/28 05:29:44;;;;;;;;;3.00;3.00;;;;;21.32;60.88;100820.78;5080406;28;47174;-78
2021/06/28 05:32:09;;;;;;;;;3.00;3.00;;;;;21.35;61.20;100816.94;5082038;28;45334;-78
2021/06/28 05:34:34;;;;;;;;;3.00;2.00;;;;;21.39;60.81;100826.34;5083591;28;45283;-78
2021/06/28 05:37:00;;;;;;;;;2.00;2.00;;;;;21.37;61.25;100821.13;5082026;28;45231;-78
2021/06/28 05:39:25;;;;;;;;;4.25;2.50;;;;;21.40;61.25;100830.66;5081865;28;45261;-79
2021/06/28 05:41:50;;;;;;;;;4.50;3.00;;;;;21.35;60.80;100815.09;5080274;28;45249;-78
2021/06/28 05:44:16;;;;;;;;;3.50;3.00;;;;;21.33;60.94;100811.72;5081789;28;45417;-78
2021/06/28 05:46:41;;;;;;;;;2.00;2.00;;;;;21.38;60.98;100803.16;5081363;28;45555;-78
2021/06/28 05:49:07;;;;;;;;;3.25;3.00;;;;;21.39;60.66;100786.03;5081309;28;45496;-78
2021/06/28 05:51:32;;;;;;;;;4.75;3.00;;;;;21.44;60.71;100778.28;5081373;28;45425;-78
2021/06/28 05:53:58;;;;;;;;;1.25;1.25;;;;;21.48;60.35;100793.91;5081468;28;45563;-78
2021/06/28 05:56:23;;;;;;;;;4.00;3.00;;;;;21.53;60.27;100796.06;5077104;28;45469;-78
2021/06/28 05:58:49;;;;;;;;;2.50;2.00;;;;;21.55;60.31;100781.44;5061170;28;45322;-78
2021/06/28 06:01:16;;;;;;;;;3.00;3.00;;;;;21.54;60.62;100785.13;5062100;28;45294;-78
2021/06/28 06:03:41;;;;;;;;;4.25;2.00;;;;;21.56;60.42;100782.28;5061658;28;45290;-77
2021/06/28 06:06:06;;;;;;;;;3.00;3.00;;;;;21.56;60.18;100777.75;5061322;28;45114;-77
2021/06/28 06:08:34;;;;;;;;;4.00;3.00;;;;;21.64;60.26;100774.19;5068862;28;47158;-78
2021/06/28 06:11:00;;;;;;;;;2.00;2.00;;;;;21.63;60.07;100778.72;5066263;28;45340;-78
2021/06/28 06:13:26;;;;;;;;;3.00;3.00;;;;;21.61;60.04;100793.34;5082169;28;45556;-79
2021/06/28 06:15:53;;;;;;;;;2.75;2.75;;;;;21.62;60.16;100813.81;5083740;28;45287;-78
2021/06/28 06:18:19;;;;;;;;;3.50;2.25;;;;;21.61;60.15;100807.59;5083762;27;45377;-78
2021/06/28 06:20:45;;;;;;;;;4.00;2.75;;;;;21.61;59.93;100806.78;5083301;28;45355;-78
2021/06/28 06:23:12;;;;;;;;;3.50;3.00;;;;;21.63;60.14;100807.44;5081183;28;45317;-78
2021/06/28 06:25:42;;;;;;;;;3.25;2.00;;;;;21.62;59.92;100825.41;5080855;28;45165;-78
2021/06/28 06:28:07;;;;;;;;;3.25;3.25;;;;;21.62;59.98;100835.31;5080975;28;45428;-78
2021/06/28 06:30:33;;;;;;;;;3.00;3.00;;;;;21.56;60.31;100854.84;5079461;28;45439;-78
2021/06/28 06:32:59;;;;;;;;;7.00;4.75;;;;;21.55;59.97;100856.69;5079457;28;45377;-78
2021/06/28 06:35:26;;;;;;;;;2.75;2.75;;;;;21.56;60.45;100858.38;5079910;28;45427;-78
2021/06/28 06:37:56;;;;;;;;;4.00;3.50;;;;;21.57;60.19;100845.78;5080827;28;45524;-78
2021/06/28 06:40:24;;;;;;;;;3.25;3.25;;;;;21.58;60.25;100845.56;5080579;28;45632;-78
2021/06/28 06:42:52;;;;;;;;;4.75;3.75;;;;;21.60;60.18;100843.56;5080929;28;45409;-78
2021/06/28 06:45:18;;;;;;;;;3.00;3.00;;;;;21.61;59.83;100852.47;5080892;28;45334;-78
2021/06/28 06:47:44;;;;;;;;;3.00;3.00;;;;;21.61;59.18;100855.97;5080773;28;46020;-78
2021/06/28 06:50:11;;;;;;;;;5.25;3.00;;;;;21.64;59.55;100852.13;5079895;28;45266;-79
2021/06/28 06:52:37;;;;;;;;;4.00;2.50;;;;;21.65;59.25;100851.97;5082638;28;45374;-78
2021/06/28 06:55:06;;;;;;;;;3.75;2.00;;;;;21.69;59.60;100844.38;5082379;28;45416;-78
2021/06/28 06:57:32;;;;;;;;;4.25;3.00;;;;;21.77;59.46;100854.25;5067492;28;48330;-79
2021/06/28 06:59:57;;;;;;;;;4.00;4.00;;;;;21.80;58.97;100848.53;5059130;28;45867;-78
2021/06/28 07:02:22;;;;;;;;;2.25;2.25;;;;;21.86;59.41;100858.59;5060299;28;45358;-79
2021/06/28 07:04:48;;;;;;;;;3.00;3.00;;;;;21.94;59.11;100859.38;5058706;28;45508;-79
2021/06/28 07:07:13;;;;;;;;;6.25;4.00;;;;;21.99;59.18;100851.69;5058159;28;48344;-79
2021/06/28 07:09:38;;;;;;;;;2.75;2.75;;;;;22.06;59.12;100848.28;5059305;28;45413;-79
2021/06/28 07:12:04;;;;;;;;;2.00;2.00;;;;;22.14;58.91;100848.25;5071597;28;45303;-79
2021/06/28 07:14:29;;;;;;;;;5.00;2.75;;;;;22.28;58.71;100853.72;5080201;28;45307;-78
2021/06/28 07:16:55;;;;;;;;;4.00;4.00;;;;;22.48;58.21;100854.13;5080052;28;46113;-78
2021/06/28 07:19:20;;;;;;;;;4.00;3.75;;;;;22.77;57.64;100856.13;5079993;28;45297;-79
2021/06/28 07:21:48;;;;;;;;;4.25;3.00;;;;;23.54;57.11;100848.72;5078999;28;45455;-78
2021/06/28 07:24:14;;;;;;;;;4.25;4.25;;;;;26.06;56.41;100850.97;5079942;28;45601;-78
2021/06/28 07:26:39;;;;;;;;;3.75;3.25;;;;;28.63;52.36;100856.22;5080077;28;45408;-79
2021/06/28 07:29:06;;;;;;;;;4.50;4.50;;;;;31.22;48.03;100851.22;5078724;28;46021;-79
2021/06/28 07:31:32;;;;;;;;;3.00;3.00;;;;;33.56;38.12;100856.59;5078987;28;45352;-79
2021/06/28 07:33:57;;;;;;;;;3.00;3.00;;;;;35.50;38.95;100855.66;5080037;28;45242;-79
2021/06/28 07:36:23;;;;;;;;;4.50;3.00;;;;;37.24;35.29;100869.69;5079954;28;45351;-79
2021/06/28 07:38:48;;;;;;;;;3.75;3.00;;;;;38.89;35.19;100865.66;5079912;28;45207;-79
2021/06/28 07:41:14;;;;;;;;;4.25;2.00;;;;;40.36;29.70;100875.16;5080221;28;45298;-80
2021/06/28 07:43:39;;;;;;;;;3.50;2.00;;;;;41.54;29.60;100870.19;5079885;28;45247;-80
2021/06/28 07:46:05;;;;;;;;;5.00;3.00;;;;;42.43;26.94;100883.63;5079866;28;45249;-80
2021/06/28 07:48:30;;;;;;;;;2.75;2.75;;;;;43.42;27.01;100888.13;5079687;28;45263;-80
2021/06/28 07:50:56;;;;;;;;;4.25;2.50;;;;;44.17;25.19;100885.13;5080036;28;45405;-80
2021/06/28 07:53:24;;;;;;;;;3.50;1.50;;;;;44.97;20.89;100889.28;5079648;28;45465;-80
2021/06/28 07:55:53;;;;;;;;;4.00;1.50;;;;;45.57;21.87;100887.50;5077992;28;46729;-80
2021/06/28 07:58:18;;;;;;;;;2.50;2.50;;;;;45.84;18.69;100890.66;5059563;28;45351;-80
2021/06/28 08:00:46;;;;;;;;;3.50;2.00;;;;;45.56;19.11;100888.66;5059603;28;45170;-80
2021/06/28 08:03:17;;;;;;;;;1.25;1.25;;;;;45.75;19.52;100873.13;5058000;28;45368;-80
2021/06/28 08:05:45;;;;;;;;;3.00;1.25;;;;;46.66;20.32;100888.34;5057209;28;47445;-81
2021/06/28 08:08:11;;;;;;;;;3.75;2.00;;;;;47.87;18.89;100876.63;5057974;28;45919;-80
2021/06/28 08:10:37;;;;;;;;;2.25;2.00;;;;;48.88;17.91;100872.88;5057763;28;45411;-81
2021/06/28 08:13:02;;;;;;;;;2.00;1.25;;;;;48.95;16.00;100879.50;5078823;28;45358;-81
2021/06/28 08:15:28;;;;;;;;;1.25;1.00;;;;;46.20;15.13;100880.94;5079398;28;46445;-80
2021/06/28 08:17:56;;;;;;;;;1.75;0.00;;;;;44.64;17.91;100885.34;5079126;28;45336;-80
2021/06/28 08:20:25;;;;;;;;;1.00;1.00;;;;;45.20;14.99;100881.53;5082036;28;45307;-80
2021/06/28 08:22:53;;;;;;;;;0.00;0.00;;;;;43.58;17.95;100867.94;5081381;28;45957;-81
2021/06/28 08:25:25;;;;;;;;;1.00;1.00;;;;;42.63;18.05;100882.31;5080996;28;46707;-81
2021/06/28 08:27:53;;;;;;;;;1.00;1.00;;;;;41.25;19.96;100869.63;5081397;28;45213;-80
2021/06/28 08:30:21;;;;;;;;;1.00;1.00;;;;;41.34;19.96;100860.28;5082892;28;45480;-80
2021/06/28 08:32:52;;;;;;;;;0.75;0.75;;;;;42.00;18.75;100860.94;5082682;28;45530;-80
2021/06/28 08:35:17;;;;;;;;;1.00;1.00;;;;;41.25;19.34;100858.53;5082655;28;45483;-80
2021/06/28 08:37:43;;;;;;;;;1.25;1.25;;;;;41.24;18.56;100857.72;5082736;28;45418;-80
2021/06/28 08:40:10;;;;;;;;;2.25;0.00;;;;;41.06;19.88;100864.94;5082768;28;45432;-80
2021/06/28 08:42:36;;;;;;;;;1.75;0.25;;;;;41.36;20.70;100866.34;5082785;28;45442;-80
2021/06/28 08:45:01;;;;;;;;;2.00;0.00;;;;;40.48;20.18;100870.00;5082515;28;46373;-80
2021/06/28 08:47:28;;;;;;;;;2.50;1.00;;;;;38.46;20.78;100870.09;5082452;28;45216;-80
2021/06/28 08:49:54;;;;;;;;;2.50;1.00;;;;;36.67;22.84;100867.97;5082566;28;45404;-80
2021/06/28 08:52:22;;;;;;;;;1.00;1.00;;;;;35.21;24.52;100868.91;5082640;28;45234;-80
2021/06/28 08:54:48;;;;;;;;;2.00;1.50;;;;;33.99;26.74;100872.25;5082045;28;45421;-80
2021/06/28 08:57:13;;;;;;;;;4.00;2.00;;;;;33.52;27.47;100867.22;5072210;28;45455;-80
2021/06/28 08:59:42;;;;;;;;;2.25;0.75;;;;;34.48;26.03;100865.75;5060787;28;45285;-80
2021/06/28 09:02:08;;;;;;;;;1.00;1.00;;;;;33.68;27.07;100868.28;5060548;28;45338;-80
2021/06/28 09:04:33;;;;;;;;;2.50;1.00;;;;;32.55;28.42;100863.91;5062149;28;45246;-80
2021/06/28 09:07:18;;;;;;;;;4.00;2.00;;;;;32.24;29.57;100868.78;5060892;28;45194;-80
2021/06/28 09:09:43;;;;;;;;;0.50;0.50;;;;;31.80;30.36;100864.00;5062005;28;45343;-80
2021/06/28 09:12:16;;;;;;;;;2.00;1.00;;;;;31.28;30.67;100869.34;5074127;28;45212;-79
2021/06/28 09:14:57;;;;;;;;;2.75;2.75;;;;;33.20;29.82;100861.50;5082042;28;46491;-80
2021/06/28 09:17:27;;;;;;;;;2.75;1.50;;;;;33.09;28.88;100867.88;5080657;28;45961;-80
2021/06/28 09:20:13;;;;;;;;;1.00;0.75;;;;;32.04;29.87;100879.28;5082330;28;45238;-80
2021/06/28 09:22:40;;;;;;;;;3.00;2.00;;;;;31.27;30.62;100885.94;5080502;28;45259;-80
2021/06/28 09:25:09;;;;;;;;;1.75;1.75;;;;;30.73;31.42;100877.75;5081887;28;45284;-80
2021/06/28 09:27:43;;;;;;;;;1.00;1.00;;;;;30.42;31.57;100881.50;5081609;28;45422;-80
2021/06/28 09:30:20;;;;;;;;;2.75;0.75;;;;;31.57;32.59;100882.06;5081866;28;45408;-80
2021/06/28 09:32:53;;;;;;;;;1.75;1.75;;;;;33.73;30.64;100879.28;5081486;28;45373;-80
2021/06/28 09:35:36;;;;;;;;;3.75;2.25;;;;;34.08;29.20;100874.28;5081568;28;45369;-80
2021/06/28 09:38:07;;;;;;;;;4.50;4.00;;;;;33.28;28.08;100880.28;5081882;28;45517;-80
2021/06/28 09:40:35;;;;;;;;;2.75;2.75;;;;;32.47;29.18;100886.19;5081671;28;45341;-80
2021/06/28 09:43:20;;;;;;;;;1.25;0.75;;;;;31.36;29.97;100888.09;5081664;28;45491;-80
2021/06/28 09:45:47;;;;;;;;;0.50;0.50;;;;;30.72;30.96;100905.25;5081553;28;45550;-80
2021/06/28 09:48:29;;;;;;;;;1.50;1.50;;;;;30.46;31.63;100907.25;5081399;28;45298;-79
2021/06/28 09:51:19;;;;;;;;;1.50;1.50;;;;;30.42;31.73;100906.03;5081711;28;45238;-80
2021/06/28 09:53:47;;;;;;;;;1.25;1.25;;;;;33.76;30.81;100889.78;5080010;28;46070;-80
2021/06/28 09:56:35;;;;;;;;;2.00;0.75;;;;;36.10;25.96;100899.13;5081039;28;45494;-80
2021/06/28 09:59:39;;;;;;;;;2.00;0.75;;;;;35.91;25.32;100906.19;5059792;28;45368;-80
2021/06/28 10:02:17;;;;;;;;;3.00;0.25;;;;;34.69;25.99;100902.41;5018888;28;45373;-80
2021/06/28 10:07:29;;;;;;;;;1.00;1.00;;;;;32.66;28.11;100904.88;5081126;28;46081;-80
2021/06/28 10:10:23;;;;;;;;;1.00;1.00;;;;;32.02;29.11;100896.97;5079493;28;45485;-80
2021/06/28 10:12:51;;;;;;;;;2.75;1.00;;;;;31.89;29.36;100898.91;5078661;28;45430;-80
2021/06/28 10:15:19;;;;;;;;;2.25;2.00;;;;;31.81;29.72;100904.72;5079854;28;45673;-79
2021/06/28 10:17:46;;;;;;;;;1.25;1.25;;;;;32.78;29.20;100898.56;5080725;28;45382;-80
2021/06/28 10:20:35;;;;;;;;;1.00;0.75;;;;;33.70;28.50;100897.06;5079746;28;45487;-80
2021/06/28 10:23:02;;;;;;;;;2.00;1.75;;;;;33.70;28.13;100901.69;5079901;28;45405;-80
2021/06/28 10:25:29;;;;;;;;;1.00;1.00;;;;;33.05;27.57;100905.06;5079202;28;45837;-80
2021/06/28 10:27:58;;;;;;;;;1.00;1.00;;;;;32.97;27.99;100906.28;5080907;28;46138;-80
2021/06/28 10:30:25;;;;;;;;;3.00;1.00;;;;;34.28;27.33;100901.16;5080650;28;45331;-80
2021/06/28 10:33:01;;;;;;;;;2.50;1.00;;;;;34.35;27.28;100899.03;5079714;28;45307;-80
2021/06/28 10:35:30;;;;;;;;;1.75;1.50;;;;;35.71;26.45;100904.13;5080898;28;45481;-80
2021/06/28 10:38:07;;;;;;;;;2.00;2.00;;;;;36.08;25.01;100901.31;5080855;28;46025;-80
2021/06/28 10:40:55;;;;;;;;;1.00;1.00;;;;;35.59;25.32;100895.28;5079081;28;46170;-80
2021/06/28 10:43:32;;;;;;;;;1.00;1.00;;;;;34.59;25.15;100896.84;5079336;28;45269;-80
2021/06/28 10:46:28;;;;;;;;;2.50;1.00;;;;;33.48;26.32;100892.63;5079393;28;45243;-80
2021/06/28 10:48:54;;;;;;;;;1.00;1.00;;;;;32.25;27.69;100892.31;5078546;27;47276;-80
2021/06/28 10:51:21;;;;;;;;;3.25;2.00;;;;;31.26;28.93;100896.03;5080501;28;45330;-80
2021/06/28 10:53:53;;;;;;;;;3.50;2.00;;;;;30.45;30.03;100894.69;5080793;28;45413;-80
2021/06/28 10:56:31;;;;;;;;;1.50;1.50;;;;;29.83;31.11;100897.75;5078868;28;45454;-80
2021/06/28 10:58:58;;;;;;;;;3.75;2.50;;;;;29.34;31.68;100892.09;5060234;28;46061;-80
2021/06/28 11:01:37;;;;;;;;;3.00;1.75;;;;;29.07;32.58;100892.53;5058835;28;45283;-80
2021/06/28 11:04:06;;;;;;;;;3.00;3.00;;;;;29.03;32.83;100886.72;5058926;28;45234;-79
2021/06/28 11:06:32;;;;;;;;;2.50;2.00;;;;;29.20;33.40;100881.56;5058785;28;45363;-79
2021/06/28 11:09:00;;;;;;;;;6.00;3.00;;;;;29.90;32.97;100884.88;5058496;28;48359;-79
2021/06/28 11:11:44;;;;;;;;;1.75;1.75;;;;;30.67;32.24;100883.31;5066188;28;45480;-79
2021/06/28 11:14:30;;;;;;;;;2.50;2.00;;;;;31.03;31.36;100875.00;5080392;28;45391;-80
2021/06/28 11:16:56;;;;;;;;;2.50;2.50;;;;;31.49;30.70;100878.84;5068064;27;45553;-80
2021/06/28 11:19:48;;;;;;;;;2.50;1.00;;;;;31.89;30.07;100877.03;5079963;28;45945;-80
2021/06/28 11:22:52;;;;;;;;;3.50;1.00;;;;;32.01;29.59;100882.50;5078965;28;45262;-80
2021/06/28 11:25:19;;;;;;;;;4.00;3.00;;;;;31.65;30.43;100871.88;5078656;28;45530;-80
2021/06/28 11:27:57;;;;;;;;;2.00;2.00;;;;;31.13;30.70;100875.28;5080259;28;45324;-80
2021/06/28 11:30:35;;;;;;;;;3.75;3.75;;;;;30.47;31.38;100869.94;5077068;28;46310;-80